Time;durP1;ratioP1;P1;durP2;ratioP2;P2;SDS_P1;SDS_P2;PMS_P1;PMS_P2;Temp;Humidity;BMP_temperature;BMP_pressure;BME280_temperature;BME280_humidity;BME280_pressure;Samples;Min_cycle;Max_cycle;Signal;HPM_P1;HPM_P2
2023/06/16 00:01:02;;;;;;;10.68;9.70;;;;;;;18.87;100.00;94485.41;4954125;28;20208;-75
2023/06/16 00:03:29;;;;;;;10.15;9.48;;;;;;;18.84;100.00;94489.97;4951570;28;20831;-71
2023/06/16 00:05:56;;;;;;;10.82;9.80;;;;;;;18.76;100.00;94482.84;4952200;28;20235;-71
2023/06/16 00:08:25;;;;;;;10.73;9.88;;;;;;;18.77;100.00;94488.81;4952013;28;20209;-68
2023/06/16 00:10:52;;;;;;;11.05;10.18;;;;;;;18.81;100.00;94478.16;4953124;28;20978;-70
2023/06/16 00:13:18;;;;;;;10.98;10.07;;;;;;;18.81;100.00;94485.88;4955305;28;20330;-72
2023/06/16 00:15:45;;;;;;;10.15;9.45;;;;;;;18.78;100.00;94480.16;4955081;28;21243;-72
2023/06/16 00:18:12;;;;;;;12.07;10.93;;;;;;;18.76;100.00;94488.00;4953872;28;20232;-72
2023/06/16 00:20:38;;;;;;;10.70;9.80;;;;;;;18.75;100.00;94491.50;4970682;22;20267;-68
2023/06/16 00:23:06;;;;;;;10.35;9.55;;;;;;;18.73;100.00;94479.69;4987536;28;20215;-66
2023/06/16 00:25:34;;;;;;;10.60;9.35;;;;;;;18.75;100.00;94475.22;4987168;28;20242;-72
2023/06/16 00:28:01;;;;;;;11.27;10.40;;;;;;;18.85;100.00;94476.97;4987696;28;21519;-67
2023/06/16 00:30:28;;;;;;;9.65;9.05;;;;;;;18.80;100.00;94476.53;4989305;28;20406;-67
2023/06/16 00:32:54;;;;;;;9.57;9.02;;;;;;;18.82;100.00;94474.63;4986822;28;20277;-68
2023/06/16 00:35:21;;;;;;;9.55;8.80;;;;;;;18.99;100.00;94474.22;4985974;28;20212;-70
2023/06/16 00:37:48;;;;;;;9.63;8.98;;;;;;;18.95;100.00;94474.56;4987441;28;20211;-68
2023/06/16 00:40:15;;;;;;;9.95;9.13;;;;;;;18.90;100.00;94469.75;4988038;28;20578;-73
2023/06/16 00:42:43;;;;;;;9.93;9.02;;;;;;;18.86;100.00;94473.47;4986806;28;20211;-70
2023/06/16 00:45:10;;;;;;;9.40;8.65;;;;;;;18.82;100.00;94472.06;4986632;28;20686;-72
2023/06/16 00:47:37;;;;;;;9.27;8.48;;;;;;;18.91;100.00;94478.28;4986474;28;20261;-66
2023/06/16 00:50:04;;;;;;;8.90;8.30;;;;;;;18.81;100.00;94470.41;4988309;28;20231;-69
2023/06/16 00:52:36;;;;;;;9.38;8.77;;;;;;;18.79;100.00;94472.31;4973152;28;20232;-70
2023/06/16 00:55:04;;;;;;;10.48;9.57;;;;;;;18.89;100.00;94457.81;4974406;28;20203;-66
2023/06/16 00:57:31;;;;;;;9.55;8.95;;;;;;;18.84;100.00;94454.75;4973339;28;20440;-73
2023/06/16 00:59:59;;;;;;;9.70;9.10;;;;;;;18.74;100.00;94458.97;4974456;28;20220;-70
2023/06/16 01:02:26;;;;;;;9.90;9.10;;;;;;;18.69;100.00;94458.50;4976553;28;20281;-73
2023/06/16 01:04:53;;;;;;;10.25;9.30;;;;;;;18.69;100.00;94455.91;4976437;28;20215;-69
2023/06/16 01:07:28;;;;;;;10.07;9.32;;;;;;;18.69;100.00;94448.19;4977980;28;20235;-69
2023/06/16 01:10:01;;;;;;;10.15;9.27;;;;;;;18.65;100.00;94451.94;4974275;28;20200;-73
2023/06/16 01:12:33;;;;;;;9.52;8.85;;;;;;;18.57;100.00;94441.34;4971158;28;20239;-68
2023/06/16 01:15:06;;;;;;;9.48;8.85;;;;;;;18.55;100.00;94438.09;4973422;28;20214;-66
2023/06/16 01:17:39;;;;;;;9.75;8.93;;;;;;;18.56;100.00;94442.31;4973478;28;20207;-68
2023/06/16 01:20:11;;;;;;;9.75;9.15;;;;;;;18.56;100.00;94440.53;4971490;28;20302;-65
2023/06/16 01:22:56;;;;;;;9.80;9.10;;;;;;;18.54;100.00;94431.31;4971428;28;20309;-69
2023/06/16 01:25:29;;;;;;;10.18;9.45;;;;;;;18.55;100.00;94438.09;4975865;28;20269;-71
2023/06/16 01:27:57;;;;;;;9.90;9.10;;;;;;;18.53;100.00;94434.81;4976023;28;20204;-73
2023/06/16 01:30:25;;;;;;;11.68;9.20;;;;;;;18.54;100.00;94434.69;4976169;28;20840;-69
2023/06/16 01:32:54;;;;;;;9.40;8.80;;;;;;;18.54;100.00;94434.69;4972664;28;20225;-70
2023/06/16 01:35:22;;;;;;;10.05;9.18;;;;;;;18.58;100.00;94427.53;4972843;28;20719;-65
2023/06/16 01:37:51;;;;;;;9.77;9.18;;;;;;;18.58;100.00;94430.94;4972488;28;20530;-70
2023/06/16 01:40:19;;;;;;;10.30;9.45;;;;;;;18.55;100.00;94422.66;4969917;28;20767;-70
2023/06/16 01:42:48;;;;;;;10.70;10.00;;;;;;;18.52;100.00;94423.69;4970965;28;20219;-67
2023/06/16 01:45:17;;;;;;;9.43;8.73;;;;;;;18.53;100.00;94425.34;4970577;28;20208;-69
2023/06/16 01:47:44;;;;;;;10.52;9.52;;;;;;;18.56;100.00;94430.22;4972475;28;20216;-72
2023/06/16 01:50:12;;;;;;;9.95;9.20;;;;;;;18.57;100.00;94429.28;4970359;28;20315;-73
2023/06/16 01:52:39;;;;;;;10.25;9.35;;;;;;;18.56;100.00;94424.28;4970709;28;20231;-67
2023/06/16 01:55:07;;;;;;;9.63;8.57;;;;;;;18.58;100.00;94430.94;4971421;28;20212;-70
2023/06/16 01:57:35;;;;;;;10.13;9.35;;;;;;;18.57;100.00;94426.72;4970911;28;20266;-70
2023/06/16 02:00:08;;;;;;;10.00;9.30;;;;;;;18.59;100.00;94427.47;4970542;28;20201;-67
2023/06/16 02:02:37;;;;;;;8.98;8.35;;;;;;;18.59;100.00;94424.03;4968549;28;20291;-65
2023/06/16 02:05:06;;;;;;;10.00;9.25;;;;;;;18.60;100.00;94423.13;4969978;28;20211;-67
2023/06/16 02:07:38;;;;;;;9.88;9.07;;;;;;;18.59;100.00;94422.31;4970765;28;21150;-75
2023/06/16 02:10:06;;;;;;;9.80;9.07;;;;;;;18.61;100.00;94417.88;4968830;28;20204;-70
2023/06/16 02:12:34;;;;;;;10.13;9.13;;;;;;;18.68;100.00;94428.53;4969244;28;20324;-69
2023/06/16 02:15:01;;;;;;;9.95;9.25;;;;;;;18.66;100.00;94425.25;4970106;28;20219;-70
2023/06/16 02:17:30;;;;;;;8.73;8.15;;;;;;;18.63;100.00;94428.06;4970225;28;22102;-70
2023/06/16 02:19:58;;;;;;;8.65;8.05;;;;;;;18.78;100.00;94419.19;4969952;28;20332;-66
2023/06/16 02:22:25;;;;;;;9.40;8.80;;;;;;;18.82;100.00;94436.03;4967200;28;20327;-69
2023/06/16 02:24:51;;;;;;;8.90;8.35;;;;;;;18.76;100.00;94439.09;4969811;28;20792;-70
2023/06/16 02:27:18;;;;;;;7.95;7.45;;;;;;;18.59;100.00;94434.31;4971695;28;20228;-69
2023/06/16 02:29:46;;;;;;;8.88;8.27;;;;;;;18.56;100.00;94429.44;4969822;28;20620;-68
2023/06/16 02:32:12;;;;;;;8.10;7.60;;;;;;;18.47;100.00;94430.13;4969968;28;20258;-70
2023/06/16 02:34:43;;;;;;;9.25;8.40;;;;;;;18.43;100.00;94428.69;4968178;28;20306;-71
2023/06/16 02:37:11;;;;;;;9.00;8.30;;;;;;;18.41;100.00;94425.41;4968670;28;20645;-68
2023/06/16 02:39:38;;;;;;;9.48;8.85;;;;;;;18.31;100.00;94408.06;4969443;28;20230;-68
2023/06/16 02:42:06;;;;;;;9.35;8.65;;;;;;;18.41;100.00;94421.09;4968516;28;20282;-71
2023/06/16 02:44:32;;;;;;;9.93;9.18;;;;;;;18.44;100.00;94426.00;4968789;28;20274;-69
2023/06/16 02:47:00;;;;;;;10.20;9.27;;;;;;;18.45;100.00;94431.97;4969308;28;20254;-67
2023/06/16 02:49:27;;;;;;;10.68;9.57;;;;;;;18.43;100.00;94434.66;4970627;28;20251;-65
2023/06/16 02:51:55;;;;;;;9.55;8.95;;;;;;;18.48;100.00;94421.47;4969229;28;20228;-71
2023/06/16 02:54:22;;;;;;;10.02;9.25;;;;;;;18.52;100.00;94428.03;4968508;28;20208;-67
2023/06/16 02:56:48;;;;;;;9.85;8.98;;;;;;;18.51;100.00;94426.38;4970255;28;20208;-68
2023/06/16 02:59:15;;;;;;;9.63;8.93;;;;;;;18.52;100.00;94428.03;4970681;28;20258;-73
2023/06/16 03:01:42;;;;;;;10.63;9.82;;;;;;;18.54;100.00;94426.16;4970387;28;20254;-67
2023/06/16 03:04:09;;;;;;;9.60;8.75;;;;;;;18.55;100.00;94418.31;4970565;28;20261;-66
2023/06/16 03:06:36;;;;;;;11.77;9.43;;;;;;;18.57;100.00;94423.31;4970175;28;20244;-70
2023/06/16 03:09:05;;;;;;;11.13;10.23;;;;;;;18.69;100.00;94422.47;4970064;28;20290;-70
2023/06/16 03:11:32;;;;;;;9.02;8.23;;;;;;;18.68;100.00;94423.38;4970556;28;20212;-73
2023/06/16 03:13:59;;;;;;;9.40;8.57;;;;;;;18.68;100.00;94425.97;4965822;28;21026;-64
2023/06/16 03:16:27;;;;;;;9.63;8.65;;;;;;;18.47;100.00;94420.63;4969254;28;21273;-70
2023/06/16 03:18:54;;;;;;;10.20;9.23;;;;;;;18.51;100.00;94421.25;4971512;28;20273;-66
2023/06/16 03:21:21;;;;;;;9.77;9.00;;;;;;;18.60;100.00;94423.13;4969215;28;20724;-72
2023/06/16 03:23:50;;;;;;;9.68;8.85;;;;;;;18.60;100.00;94423.13;4969240;28;20318;-71
2023/06/16 03:26:19;;;;;;;9.75;8.75;;;;;;;18.62;100.00;94419.50;4968665;28;20306;-68
2023/06/16 03:28:45;;;;;;;10.02;8.98;;;;;;;18.63;100.00;94425.47;4969539;28;20205;-63
2023/06/16 03:31:12;;;;;;;8.60;8.05;;;;;;;18.55;100.00;94422.66;4969685;28;20311;-68
2023/06/16 03:33:39;;;;;;;9.43;8.73;;;;;;;18.61;100.00;94417.06;4970686;28;20208;-67
2023/06/16 03:36:07;;;;;;;9.57;8.73;;;;;;;18.64;100.00;94417.66;4969482;28;20203;-71
2023/06/16 03:38:34;;;;;;;11.65;9.32;;;;;;;18.60;100.00;94416.22;4969428;28;21175;-68
2023/06/16 03:41:01;;;;;;;9.48;8.77;;;;;;;18.73;100.00;94416.16;4969457;28;20582;-66
2023/06/16 03:43:29;;;;;;;9.25;8.45;;;;;;;18.78;100.00;94414.06;4969975;28;20207;-66
2023/06/16 03:45:57;;;;;;;9.75;9.00;;;;;;;18.69;100.00;94399.28;4968845;28;20234;-67
2023/06/16 03:48:23;;;;;;;10.07;9.00;;;;;;;18.60;100.00;94399.97;4968384;28;20235;-68
2023/06/16 03:50:52;;;;;;;9.88;9.13;;;;;;;18.48;100.00;94398.31;4968616;28;20246;-70
2023/06/16 03:53:19;;;;;;;11.60;10.07;;;;;;;18.39;100.00;94402.38;4968393;28;21501;-70
2023/06/16 03:55:47;;;;;;;10.45;9.75;;;;;;;18.43;100.00;94392.69;4968750;28;20294;-70
2023/06/16 03:58:15;;;;;;;13.52;12.10;;;;;;;18.48;100.00;94395.72;4969862;28;20204;-66
2023/06/16 04:00:43;;;;;;;12.00;10.90;;;;;;;18.43;100.00;94393.50;4969728;28;22769;-69
2023/06/16 04:03:10;;;;;;;13.18;11.95;;;;;;;18.40;100.00;94377.47;4970293;28;20299;-66
2023/06/16 04:05:36;;;;;;;12.45;11.23;;;;;;;18.45;100.00;94393.38;4967562;28;20565;-73
2023/06/16 04:08:03;;;;;;;12.88;11.68;;;;;;;18.51;100.00;94392.94;4969807;28;20265;-72
2023/06/16 04:10:30;;;;;;;11.25;10.45;;;;;;;18.57;100.00;94393.28;4969697;28;20633;-71
2023/06/16 04:12:57;;;;;;;13.48;12.05;;;;;;;18.55;100.00;94389.19;4969320;28;20318;-70
2023/06/16 04:15:23;;;;;;;12.98;11.65;;;;;;;18.51;100.00;94396.31;4967712;28;20434;-72
2023/06/16 04:17:51;;;;;;;14.00;12.57;;;;;;;18.62;100.00;94392.97;4968283;28;20263;-67
2023/06/16 04:20:18;;;;;;;12.35;11.25;;;;;;;18.71;100.00;94392.28;4968795;28;20200;-68
2023/06/16 04:22:45;;;;;;;18.40;12.77;;;;;;;18.63;100.00;94389.44;4968175;28;20236;-69
2023/06/16 04:25:12;;;;;;;16.00;14.45;;;;;;;18.58;100.00;94394.09;4966383;28;20214;-69
2023/06/16 04:27:39;;;;;;;15.52;13.95;;;;;;;18.60;100.00;94394.81;4970569;28;20255;-72
2023/06/16 04:30:07;;;;;;;15.45;13.48;;;;;;;18.45;100.00;94390.81;4971803;28;21411;-70
2023/06/16 04:32:35;;;;;;;15.02;13.43;;;;;;;18.37;100.00;94388.81;4973919;28;20208;-66
2023/06/16 04:35:04;;;;;;;15.27;13.75;;;;;;;18.35;100.00;94386.34;4971010;28;20219;-73
2023/06/16 04:37:31;;;;;;;15.32;13.55;;;;;;;18.33;100.00;94392.53;4974208;28;20208;-71
2023/06/16 04:39:58;;;;;;;14.18;12.82;;;;;;;18.41;100.00;94391.97;4972569;28;20208;-75
2023/06/16 04:42:24;;;;;;;13.10;12.05;;;;;;;18.50;100.00;94399.84;4972362;28;20212;-72
2023/06/16 04:44:51;;;;;;;17.88;12.88;;;;;;;18.51;100.00;94395.50;4971913;28;20526;-66
2023/06/16 04:47:18;;;;;;;14.52;13.25;;;;;;;18.58;100.00;94388.94;4972564;28;20227;-68
2023/06/16 04:49:45;;;;;;;15.18;12.25;;;;;;;18.78;100.00;94395.22;4972598;28;20721;-67
2023/06/16 04:52:13;;;;;;;13.45;12.25;;;;;;;18.75;100.00;94385.16;4973289;28;20232;-66
2023/06/16 04:54:40;;;;;;;14.70;13.15;;;;;;;18.71;100.00;94389.69;4972737;28;20213;-65
2023/06/16 04:57:07;;;;;;;12.55;11.32;;;;;;;18.57;100.00;94384.72;4971865;28;20275;-73
2023/06/16 04:59:35;;;;;;;12.07;11.05;;;;;;;18.61;100.00;94388.75;4973294;28;20263;-67
2023/06/16 05:02:01;;;;;;;12.18;11.13;;;;;;;18.60;100.00;94389.69;4969585;28;20211;-68
2023/06/16 05:04:28;;;;;;;12.70;11.60;;;;;;;18.44;100.00;94391.75;4972934;28;20213;-71
2023/06/16 05:06:55;;;;;;;12.73;11.48;;;;;;;18.62;100.00;94398.09;4971368;28;20228;-71
2023/06/16 05:09:23;;;;;;;14.15;12.75;;;;;;;18.64;100.00;94397.06;4972532;28;20220;-71
2023/06/16 05:11:50;;;;;;;12.90;11.57;;;;;;;18.67;100.00;94396.00;4972044;28;20196;-68
2023/06/16 05:14:17;;;;;;;13.98;12.82;;;;;;;18.68;100.00;94406.19;4973061;28;20983;-71
2023/06/16 05:16:43;;;;;;;13.45;11.40;;;;;;;18.80;100.00;94401.06;4973134;28;20323;-71
2023/06/16 05:19:10;;;;;;;13.32;12.32;;;;;;;18.72;100.00;94399.06;4974056;28;20464;-70
2023/06/16 05:21:37;;;;;;;13.88;11.88;;;;;;;18.68;100.00;94401.03;4972203;28;20298;-65
2023/06/16 05:24:04;;;;;;;12.13;11.32;;;;;;;18.56;100.00;94403.72;4971891;28;20232;-70
2023/06/16 05:26:32;;;;;;;13.38;12.18;;;;;;;18.54;100.00;94400.44;4966145;28;20212;-67
2023/06/16 05:28:59;;;;;;;13.35;12.25;;;;;;;18.62;100.00;94393.78;4970394;28;20267;-63
2023/06/16 05:31:25;;;;;;;13.90;12.52;;;;;;;18.59;100.00;94399.16;4972549;28;20451;-62
2023/06/16 05:33:54;;;;;;;14.57;12.02;;;;;;;18.77;100.00;94399.53;4969481;28;20349;-62
2023/06/16 05:36:24;;;;;;;12.65;11.52;;;;;;;18.85;100.00;94394.59;4970820;28;20209;-63
2023/06/16 05:38:51;;;;;;;12.80;11.70;;;;;;;18.80;100.00;94396.72;4971257;28;20220;-64
2023/06/16 05:41:17;;;;;;;12.57;11.57;;;;;;;18.93;100.00;94397.44;4968797;28;20646;-63
2023/06/16 05:43:45;;;;;;;12.80;11.80;;;;;;;19.02;100.00;94401.06;4968120;28;21513;-60
2023/06/16 05:46:12;;;;;;;13.18;12.07;;;;;;;19.06;100.00;94401.63;4978828;28;20300;-66
2023/06/16 05:48:39;;;;;;;12.05;11.25;;;;;;;19.23;100.00;94399.38;4989634;28;20224;-64
2023/06/16 05:51:06;;;;;;;12.50;11.50;;;;;;;19.34;100.00;94401.13;5010118;28;20224;-63
2023/06/16 05:53:33;;;;;;;12.30;11.23;;;;;;;19.29;100.00;94398.09;5012045;28;20877;-63
2023/06/16 05:55:59;;;;;;;12.82;11.70;;;;;;;19.27;100.00;94399.97;5011060;28;20211;-63
2023/06/16 05:58:26;;;;;;;11.90;11.00;;;;;;;19.45;100.00;94408.84;5012340;28;20204;-63
2023/06/16 06:00:54;;;;;;;10.90;9.95;;;;;;;19.66;100.00;94407.16;5012448;28;20201;-63
2023/06/16 06:03:21;;;;;;;12.43;11.48;;;;;;;20.02;100.00;94402.59;5011453;28;20208;-66
2023/06/16 06:05:48;;;;;;;11.43;10.60;;;;;;;20.50;97.91;94410.69;5011080;28;20678;-63
2023/06/16 06:08:14;;;;;;;10.95;10.25;;;;;;;20.69;96.77;94412.56;5010940;28;20228;-64
2023/06/16 06:10:41;;;;;;;11.07;10.38;;;;;;;20.67;96.30;94409.28;5007841;28;20704;-63
2023/06/16 06:13:08;;;;;;;10.25;9.38;;;;;;;21.08;94.06;94410.13;5012640;28;20208;-62
2023/06/16 06:15:35;;;;;;;10.23;9.13;;;;;;;22.47;89.90;94409.13;5011286;28;20211;-63
2023/06/16 06:18:03;;;;;;;8.30;7.80;;;;;;;25.19;78.52;94403.66;5009860;28;20666;-62
2023/06/16 06:20:30;;;;;;;7.97;7.38;;;;;;;25.46;72.18;94405.22;5011493;28;20227;-61
2023/06/16 06:22:56;;;;;;;6.85;6.25;;;;;;;25.84;71.65;94405.66;5010132;28;20248;-63
2023/06/16 06:25:23;;;;;;;6.22;5.75;;;;;;;28.10;63.60;94398.34;5011664;28;20590;-63
2023/06/16 06:27:50;;;;;;;8.20;7.47;;;;;;;28.75;61.29;94400.44;5010954;28;20255;-64
2023/06/16 06:30:17;;;;;;;6.07;5.75;;;;;;;27.64;64.18;94403.50;5011866;28;20207;-63
2023/06/16 06:32:44;;;;;;;6.88;6.45;;;;;;;26.07;69.34;94401.47;5011187;28;20237;-62
2023/06/16 06:35:12;;;;;;;11.77;6.85;;;;;;;24.47;74.15;94404.81;5011734;28;20200;-63
2023/06/16 06:37:39;;;;;;;8.50;7.80;;;;;;;23.69;77.27;94403.78;5011087;28;20219;-61
2023/06/16 06:40:07;;;;;;;7.00;6.60;;;;;;;25.35;72.30;94395.91;5010577;28;20215;-63
2023/06/16 06:42:34;;;;;;;8.52;7.60;;;;;;;25.26;71.09;94393.41;5009304;28;20238;-64
2023/06/16 06:45:01;;;;;;;7.25;6.65;;;;;;;24.07;75.92;94392.28;5009704;28;20632;-65
2023/06/16 06:47:27;;;;;;;7.28;6.57;;;;;;;23.86;78.95;94389.16;5009462;28;20232;-65
2023/06/16 06:49:54;;;;;;;8.32;7.72;;;;;;;23.57;80.09;94394.56;5009139;28;20204;-64
2023/06/16 06:52:23;;;;;;;8.48;7.55;;;;;;;22.94;81.20;94392.66;5009313;28;20220;-63
2023/06/16 06:54:49;;;;;;;7.63;7.13;;;;;;;22.71;82.68;94394.75;5009961;28;20205;-64
2023/06/16 06:57:16;;;;;;;8.73;8.02;;;;;;;22.38;82.48;94390.88;5010075;28;20247;-63
2023/06/16 06:59:43;;;;;;;10.40;8.25;;;;;;;22.32;84.21;94388.00;5011302;28;20657;-63
2023/06/16 07:02:09;;;;;;;8.57;8.07;;;;;;;22.45;84.65;94385.16;5010686;28;20262;-66
2023/06/16 07:04:38;;;;;;;8.85;8.25;;;;;;;22.51;83.32;94393.19;5011331;28;20605;-67
2023/06/16 07:07:05;;;;;;;8.10;7.57;;;;;;;22.24;84.62;94385.31;5011005;28;20228;-64
2023/06/16 07:09:33;;;;;;;9.70;8.85;;;;;;;22.04;85.45;94379.31;5010856;28;20220;-64
2023/06/16 07:12:00;;;;;;;8.80;7.88;;;;;;;21.91;86.48;94383.94;5011064;28;20639;-66
2023/06/16 07:14:29;;;;;;;10.27;8.15;;;;;;;21.82;86.19;94380.38;5010950;28;20239;-64
2023/06/16 07:16:57;;;;;;;9.15;8.30;;;;;;;21.75;85.94;94383.66;5010735;28;20262;-64
2023/06/16 07:19:26;;;;;;;10.18;9.20;;;;;;;21.82;85.96;94379.56;5010839;28;20203;-64
2023/06/16 07:21:53;;;;;;;11.32;10.48;;;;;;;21.77;85.09;94390.34;5009923;28;20359;-65
2023/06/16 07:24:19;;;;;;;11.68;10.68;;;;;;;21.93;84.04;94384.63;5011112;28;20266;-61
2023/06/16 07:26:47;;;;;;;10.63;9.85;;;;;;;22.18;84.26;94394.44;5007779;28;20613;-64
2023/06/16 07:29:14;;;;;;;10.75;9.95;;;;;;;22.32;82.26;94396.59;5006855;28;20282;-66
2023/06/16 07:31:41;;;;;;;10.98;9.98;;;;;;;22.25;81.04;94398.13;5010126;28;20262;-65
2023/06/16 07:34:08;;;;;;;11.23;10.13;;;;;;;22.36;80.01;94397.97;5010589;28;20204;-65
2023/06/16 07:36:34;;;;;;;11.73;10.73;;;;;;;22.40;80.87;94399.31;5010634;28;20232;-65
2023/06/16 07:39:01;;;;;;;11.35;10.13;;;;;;;22.26;79.52;94397.16;5010627;28;20204;-64
2023/06/16 07:41:28;;;;;;;12.60;11.40;;;;;;;21.93;81.37;94400.97;5010570;28;20228;-65
2023/06/16 07:43:56;;;;;;;13.60;11.88;;;;;;;21.80;81.89;94405.56;5010691;28;20232;-64
2023/06/16 07:46:22;;;;;;;12.45;11.43;;;;;;;21.66;82.23;94411.13;5010535;28;20263;-64
2023/06/16 07:48:49;;;;;;;11.65;10.73;;;;;;;21.46;82.61;94418.03;5009889;28;20311;-64
2023/06/16 07:51:16;;;;;;;11.18;10.15;;;;;;;21.51;82.71;94405.53;5010383;28;20220;-63
2023/06/16 07:53:43;;;;;;;12.00;11.10;;;;;;;21.57;83.34;94410.16;5010204;28;20224;-65
2023/06/16 07:56:10;;;;;;;13.77;10.38;;;;;;;21.69;82.05;94406.53;5010320;28;20710;-65
2023/06/16 07:58:38;;;;;;;12.23;11.07;;;;;;;21.99;81.74;94404.78;5009593;28;20690;-67
2023/06/16 08:01:06;;;;;;;10.52;9.55;;;;;;;22.45;77.20;94401.50;5010691;28;20207;-63
2023/06/16 08:03:33;;;;;;;14.55;10.23;;;;;;;22.59;77.37;94402.81;5014345;28;20204;-64
2023/06/16 08:06:00;;;;;;;11.18;10.25;;;;;;;22.50;76.74;94408.84;5014399;28;20638;-65
2023/06/16 08:08:27;;;;;;;11.93;10.93;;;;;;;22.52;77.54;94401.75;5014020;28;20224;-64
2023/06/16 08:10:55;;;;;;;12.13;10.88;;;;;;;22.46;75.76;94408.31;5014597;28;20204;-63
2023/06/16 08:13:22;;;;;;;12.73;11.45;;;;;;;22.52;76.33;94412.91;5014266;28;20908;-66
2023/06/16 08:15:49;;;;;;;13.38;12.27;;;;;;;22.54;76.96;94410.19;5013947;28;20262;-67
2023/06/16 08:18:18;;;;;;;14.13;12.82;;;;;;;22.51;77.34;94411.31;5012339;28;20223;-69
2023/06/16 08:20:44;;;;;;;13.27;11.95;;;;;;;22.40;76.72;94408.84;5013645;28;20236;-66
2023/06/16 08:23:11;;;;;;;14.05;12.18;;;;;;;22.08;76.95;94414.31;5012878;28;20212;-64
2023/06/16 08:25:38;;;;;;;16.30;14.82;;;;;;;21.86;79.51;94409.38;5013727;28;20279;-65
2023/06/16 08:28:06;;;;;;;15.88;14.40;;;;;;;21.91;79.62;94412.38;5013540;28;20224;-67
2023/06/16 08:30:34;;;;;;;15.32;13.93;;;;;;;21.72;79.23;94411.44;5014258;28;20378;-65
2023/06/16 08:33:01;;;;;;;15.02;13.35;;;;;;;21.59;79.64;94413.44;5013597;28;20670;-66
2023/06/16 08:35:29;;;;;;;18.20;13.10;;;;;;;21.65;80.50;94420.66;5012653;28;20208;-66
2023/06/16 08:37:56;;;;;;;19.40;14.65;;;;;;;21.33;80.16;94418.28;5012086;28;20239;-67
2023/06/16 08:40:23;;;;;;;17.98;15.32;;;;;;;21.38;80.02;94417.88;5012483;28;20200;-68
2023/06/16 08:42:49;;;;;;;15.82;14.32;;;;;;;21.35;78.93;94405.22;5012220;28;20255;-68
2023/06/16 08:45:20;;;;;;;16.48;14.77;;;;;;;21.49;79.76;94412.63;5012066;28;20595;-66
2023/06/16 08:47:48;;;;;;;16.45;14.75;;;;;;;21.70;78.65;94415.09;5011943;28;20215;-67
2023/06/16 08:50:19;;;;;;;14.15;12.95;;;;;;;21.87;77.45;94414.44;5013223;28;20204;-66
2023/06/16 08:52:49;;;;;;;15.15;13.90;;;;;;;22.18;76.86;94415.16;5013591;28;20287;-68
2023/06/16 08:55:16;;;;;;;14.63;13.43;;;;;;;22.44;75.47;94415.41;5013417;28;20209;-70
2023/06/16 08:57:46;;;;;;;12.90;11.65;;;;;;;22.52;74.34;94414.72;5013782;28;20204;-67
2023/06/16 09:00:14;;;;;;;12.68;11.68;;;;;;;22.73;74.28;94415.34;5013225;28;20200;-67
2023/06/16 09:02:41;;;;;;;13.68;12.40;;;;;;;23.20;73.89;94412.75;5013777;28;20204;-68
2023/06/16 09:05:08;;;;;;;15.95;12.88;;;;;;;23.28;72.61;94418.81;5012987;28;20686;-67
2023/06/16 09:07:35;;;;;;;14.80;13.60;;;;;;;23.01;73.81;94419.63;5013346;28;20613;-68
2023/06/16 09:10:03;;;;;;;13.82;12.48;;;;;;;22.76;74.56;94412.47;5013130;28;20310;-67
2023/06/16 09:12:30;;;;;;;13.93;12.63;;;;;;;22.56;75.74;94408.28;5012842;28;20624;-68
2023/06/16 09:14:58;;;;;;;14.90;13.48;;;;;;;22.71;76.03;94406.88;5013038;28;20208;-68
2023/06/16 09:17:27;;;;;;;14.35;13.23;;;;;;;22.82;75.22;94403.34;5013176;28;20201;-68
2023/06/16 09:19:55;;;;;;;14.32;12.93;;;;;;;22.79;76.16;94408.78;5012837;28;20212;-68
2023/06/16 09:22:26;;;;;;;13.60;12.32;;;;;;;23.05;75.01;94399.44;5012627;28;20236;-67
2023/06/16 09:24:56;;;;;;;16.42;14.90;;;;;;;23.33;73.61;94402.84;5013339;28;20270;-68
2023/06/16 09:27:29;;;;;;;13.85;12.52;;;;;;;23.54;73.77;94392.25;5013575;28;20200;-68
2023/06/16 09:29:59;;;;;;;13.50;12.30;;;;;;;23.54;72.98;94406.03;5012703;28;20718;-70
2023/06/16 09:32:26;;;;;;;13.55;12.45;;;;;;;23.38;72.98;94400.63;5013010;28;20705;-68
2023/06/16 09:34:53;;;;;;;13.55;12.20;;;;;;;23.47;73.20;94402.38;5010381;28;20647;-69
2023/06/16 09:37:20;;;;;;;14.02;12.43;;;;;;;23.38;72.28;94398.88;5010780;28;20258;-69
2023/06/16 09:39:47;;;;;;;12.93;11.75;;;;;;;23.76;71.61;94398.81;5012729;28;20283;-69
2023/06/16 09:42:16;;;;;;;12.45;10.82;;;;;;;24.01;70.71;94398.06;5012539;28;20287;-66
2023/06/16 09:44:44;;;;;;;13.10;12.15;;;;;;;24.16;69.82;94395.75;5012775;28;20196;-67
2023/06/16 09:47:14;;;;;;;12.40;11.38;;;;;;;23.88;70.99;94392.44;5012119;28;20769;-67
2023/06/16 09:49:41;;;;;;;14.35;12.32;;;;;;;24.09;70.87;94404.16;5012571;28;20224;-69
2023/06/16 09:52:08;;;;;;;13.77;11.65;;;;;;;23.86;70.07;94383.97;5012394;28;20252;-66
2023/06/16 09:54:35;;;;;;;12.38;11.02;;;;;;;23.29;70.34;94393.72;5012677;28;20201;-69
2023/06/16 09:57:02;;;;;;;12.85;11.70;;;;;;;22.93;72.23;94391.03;5010248;28;20201;-68
2023/06/16 09:59:29;;;;;;;12.85;11.88;;;;;;;22.84;72.40;94386.69;5012410;28;20197;-66
2023/06/16 10:01:58;;;;;;;13.55;11.63;;;;;;;22.81;72.80;94386.97;5012287;28;20200;-67
2023/06/16 10:04:25;;;;;;;12.93;11.90;;;;;;;23.00;73.35;94386.91;5012633;28;20204;-67
2023/06/16 10:07:00;;;;;;;11.35;10.52;;;;;;;22.83;71.65;94387.66;5011725;28;20258;-69
2023/06/16 10:09:33;;;;;;;13.38;11.82;;;;;;;22.71;73.01;94379.22;5012150;28;20659;-65
2023/06/16 10:12:01;;;;;;;13.02;11.90;;;;;;;22.63;72.16;94379.09;5012571;28;20224;-67
2023/06/16 10:14:32;;;;;;;12.63;11.68;;;;;;;22.68;72.24;94374.31;5012612;28;20211;-65
2023/06/16 10:17:01;;;;;;;14.45;12.25;;;;;;;23.03;71.76;94375.41;5010314;28;20224;-70
2023/06/16 10:19:33;;;;;;;9.93;9.05;;;;;;;23.66;68.84;94378.94;5010635;28;20652;-66
2023/06/16 10:22:01;;;;;;;12.27;11.00;;;;;;;23.91;68.32;94371.38;5011215;28;20710;-69
2023/06/16 10:24:28;;;;;;;11.40;10.32;;;;;;;24.31;66.00;94369.13;5010038;28;20591;-66
2023/06/16 10:26:55;;;;;;;11.82;10.68;;;;;;;24.23;66.25;94366.47;5011155;28;20204;-69
2023/06/16 10:29:25;;;;;;;10.80;9.90;;;;;;;24.42;66.45;94361.13;5011427;28;20646;-68
2023/06/16 10:32:06;;;;;;;11.18;10.07;;;;;;;24.41;65.25;94351.69;5000194;28;20592;-68
2023/06/16 10:34:34;;;;;;;10.57;9.65;;;;;;;23.94;65.60;94355.53;5011276;28;20279;-66
2023/06/16 10:37:02;;;;;;;10.50;9.63;;;;;;;23.60;66.65;94353.56;5010204;28;20259;-70
2023/06/16 10:39:29;;;;;;;10.15;9.38;;;;;;;23.20;67.71;94353.94;5009767;28;20250;-70
2023/06/16 10:41:59;;;;;;;11.35;10.45;;;;;;;23.26;68.66;94355.94;5010094;28;20204;-68
2023/06/16 10:44:27;;;;;;;10.90;9.95;;;;;;;23.43;67.93;94346.56;5009487;28;20302;-70
2023/06/16 10:47:36;;;;;;;10.73;10.02;;;;;;;23.48;67.42;94344.38;5009684;28;20255;-67
2023/06/16 10:50:06;;;;;;;10.13;9.35;;;;;;;23.63;67.50;94337.72;5001621;28;20256;-68
2023/06/16 10:52:51;;;;;;;11.80;9.73;;;;;;;23.94;66.49;94335.56;5011940;28;20612;-66
2023/06/16 10:55:35;;;;;;;10.82;10.02;;;;;;;24.14;66.45;94330.19;5016101;28;20593;-68
2023/06/16 10:58:21;;;;;;;11.45;10.40;;;;;;;24.14;65.79;94332.78;5012646;28;20208;-65
2023/06/16 11:00:59;;;;;;;9.60;8.70;;;;;;;24.15;65.13;94332.66;5013452;28;20254;-70
2023/06/16 11:03:30;;;;;;;10.63;9.70;;;;;;;24.31;65.37;94322.41;5011778;28;20696;-66
2023/06/16 11:06:01;;;;;;;10.05;9.40;;;;;;;24.38;64.86;94320.00;5012260;28;20590;-67
2023/06/16 11:08:28;;;;;;;10.52;9.02;;;;;;;24.36;64.77;94325.34;5010822;28;20705;-67
2023/06/16 11:10:58;;;;;;;10.80;9.90;;;;;;;24.29;64.55;94321.72;5011131;28;20212;-66
2023/06/16 11:13:28;;;;;;;10.00;9.15;;;;;;;24.38;63.58;94310.44;5011325;28;20768;-66
2023/06/16 11:15:56;;;;;;;9.52;8.68;;;;;;;24.30;66.17;94312.16;5011526;28;20204;-67
2023/06/16 11:18:25;;;;;;;10.98;9.88;;;;;;;24.11;65.93;94310.56;5011094;28;20205;-66
2023/06/16 11:20:56;;;;;;;9.18;8.35;;;;;;;23.73;65.84;94316.91;5011255;28;20577;-69
2023/06/16 11:23:25;;;;;;;10.00;9.20;;;;;;;23.72;67.29;94310.91;5012829;28;20200;-66